createdAt,value
2022-10-07T00:01:14.165Z,101982.28
2022-10-07T00:06:36.100Z,101968.56
2022-10-07T00:11:57.964Z,101978.88
2022-10-07T00:17:19.874Z,101984.03
2022-10-07T00:22:41.753Z,101978.88
2022-10-07T00:28:04.785Z,101978.88
2022-10-07T00:33:30.427Z,101975.44
2022-10-07T00:38:54.618Z,101977.13
2022-10-07T00:44:31.403Z,101969.41
2022-10-07T00:50:07.179Z,101960.78
2022-10-07T00:55:31.655Z,101969.34
2022-10-07T01:00:54.110Z,101978.84
2022-10-07T01:06:16.292Z,101956.47
2022-10-07T01:11:59.420Z,101972.78
2022-10-07T01:17:29.248Z,101958.19
2022-10-07T01:23:28.496Z,101971.06
2022-10-07T01:28:58.949Z,101958.13
2022-10-07T01:34:24.496Z,101959.88
2022-10-07T01:39:49.826Z,101970.16
2022-10-07T01:45:15.181Z,101972.72
2022-10-07T01:50:38.654Z,101969.31
2022-10-07T01:56:10.669Z,101968.44
2022-10-07T02:01:52.637Z,101974.44
2022-10-07T02:07:51.664Z,101971.78
2022-10-07T02:13:22.892Z,101969.19
2022-10-07T02:18:49.412Z,101975.19
2022-10-07T02:24:14.482Z,101963.97
2022-10-07T02:29:39.745Z,101966.56
2022-10-07T02:35:10.555Z,101963.09
2022-10-07T02:40:50.480Z,101975.06
2022-10-07T02:46:18.785Z,101969.81
2022-10-07T02:52:09.196Z,101971.53
2022-10-07T02:57:35.069Z,101974.09
2022-10-07T03:03:00.034Z,101967.19
2022-10-07T03:08:23.054Z,101967.06
2022-10-07T03:13:44.843Z,101966.09
2022-10-07T03:19:06.697Z,101970.34
2022-10-07T03:24:28.508Z,101966.94
2022-10-07T03:29:50.289Z,101971.19
2022-10-07T03:35:12.102Z,101975.38
2022-10-07T03:40:38.273Z,101959.78
2022-10-07T03:46:00.213Z,101962.25
2022-10-07T03:51:22.126Z,101955.22
2022-10-07T03:56:43.947Z,101962.84
2022-10-07T04:02:05.799Z,101955.03
2022-10-07T04:07:27.664Z,101941.13
2022-10-07T04:12:49.508Z,101949.75
2022-10-07T04:18:11.485Z,101946.19
2022-10-07T04:23:33.986Z,101943.44
2022-10-07T04:28:55.787Z,101945.09
2022-10-07T04:34:17.677Z,101945.19
2022-10-07T04:39:59.701Z,101951.03
2022-10-07T04:45:21.407Z,101949.31
2022-10-07T04:50:43.724Z,101940.63
2022-10-07T04:56:06.249Z,101936.50
2022-10-07T05:01:28.116Z,101940.88
2022-10-07T05:06:49.990Z,101934.13
2022-10-07T05:12:12.130Z,101919.50
2022-10-07T05:17:34.180Z,101920.44
2022-10-07T05:22:56.098Z,101917.50
2022-10-07T05:28:17.976Z,101922.56
2022-10-07T05:33:40.291Z,101918.56
2022-10-07T05:39:02.135Z,101916.66
2022-10-07T05:44:24.042Z,101916.34
2022-10-07T05:49:45.846Z,101916.56
2022-10-07T05:55:08.155Z,101923.28
2022-10-07T06:00:29.970Z,101918.63
2022-10-07T06:05:53.087Z,101922.16
2022-10-07T06:11:16.457Z,101935.00
2022-10-07T06:16:39.522Z,101949.38
2022-10-07T06:22:01.362Z,101934.94
2022-10-07T06:27:23.395Z,101938.88
2022-10-07T06:32:45.193Z,101928.84
2022-10-07T06:38:07.237Z,101920.16
2022-10-07T06:43:34.006Z,101937.66
2022-10-07T06:48:55.810Z,101928.50
2022-10-07T06:54:17.826Z,101933.97
2022-10-07T06:59:39.669Z,101923.50
2022-10-07T07:10:24.505Z,101938.66
2022-10-07T07:15:57.514Z,101929.50
2022-10-07T07:21:19.450Z,101922.22
2022-10-07T07:26:41.289Z,101918.88
2022-10-07T07:32:03.097Z,101926.97
2022-10-07T07:37:24.948Z,101921.41
2022-10-07T07:42:47.389Z,101923.97
2022-10-07T07:48:09.175Z,101925.03
2022-10-07T07:53:31.053Z,101917.88
2022-10-07T07:58:54.113Z,101916.47
2022-10-07T08:04:16.252Z,101918.19
2022-10-07T08:09:38.201Z,101912.28
2022-10-07T08:14:59.990Z,101912.19
2022-10-07T08:20:21.793Z,101907.66
2022-10-07T08:25:43.632Z,101910.19
2022-10-07T08:31:17.684Z,101895.53
2022-10-07T08:36:39.997Z,101887.00
2022-10-07T08:42:11.205Z,101889.81
2022-10-07T08:47:32.978Z,101877.34
2022-10-07T08:53:05.772Z,101879.59
2022-10-07T08:58:40.390Z,101872.97
2022-10-07T09:04:05.189Z,101875.34
2022-10-07T09:09:41.065Z,101890.19
2022-10-07T09:15:05.503Z,101892.81
2022-10-07T09:20:33.322Z,101856.22
2022-10-07T09:25:55.393Z,101847.22
2022-10-07T09:31:18.106Z,101898.97
2022-10-07T09:37:14.676Z,101887.06
2022-10-07T09:42:45.933Z,101864.00
2022-10-07T09:48:18.800Z,101849.97
2022-10-07T09:53:58.503Z,101827.81
2022-10-07T09:59:23.017Z,101810.59
2022-10-07T10:04:52.212Z,101810.56
2022-10-07T10:10:27.136Z,101789.00
2022-10-07T10:15:49.088Z,101777.19
2022-10-07T10:21:29.263Z,101773.63
2022-10-07T10:27:11.692Z,101771.81
2022-10-07T10:33:12.113Z,101759.91
2022-10-07T10:39:06.140Z,101753.78
2022-10-07T10:45:06.830Z,101741.75
2022-10-07T10:50:45.203Z,101742.72
2022-10-07T10:56:42.354Z,101728.66
2022-10-07T11:02:13.287Z,101726.94
2022-10-07T11:07:56.361Z,101698.09
2022-10-07T11:13:36.198Z,101704.03
2022-10-07T11:19:04.094Z,101687.03
2022-10-07T11:24:38.948Z,101669.91
2022-10-07T11:30:07.039Z,101650.72
2022-10-07T11:35:32.697Z,101648.41
2022-10-07T11:41:08.329Z,101636.56
2022-10-07T11:46:43.483Z,101627.28
2022-10-07T11:52:20.542Z,101622.13
2022-10-07T11:57:42.409Z,101611.25
2022-10-07T12:03:33.129Z,101593.47
2022-10-07T12:08:55.003Z,101583.94
2022-10-07T12:14:31.174Z,101573.69
2022-10-07T12:20:31.595Z,101571.91
2022-10-07T12:26:05.037Z,101564.13
2022-10-07T12:31:32.960Z,101561.53
2022-10-07T12:37:34.991Z,101561.31
2022-10-07T12:43:05.693Z,101547.00
2022-10-07T12:48:36.977Z,101542.56
2022-10-07T12:54:00.023Z,101526.00
2022-10-07T12:59:46.633Z,101522.97
2022-10-07T13:05:39.427Z,101505.03
2022-10-07T13:11:31.521Z,101506.22
2022-10-07T13:17:16.417Z,101480.00
2022-10-07T13:22:45.509Z,101478.50
2022-10-07T13:28:13.775Z,101474.88
2022-10-07T13:33:35.607Z,101466.63
2022-10-07T13:39:21.335Z,101446.47
2022-10-07T13:44:43.741Z,101443.06
2022-10-07T13:50:08.125Z,101430.84
2022-10-07T13:55:32.912Z,101432.53
2022-10-07T14:00:54.903Z,101420.66
2022-10-07T14:06:43.736Z,101417.97
2022-10-07T14:12:09.835Z,101405.66
2022-10-07T14:17:43.302Z,101393.72
2022-10-07T14:23:06.523Z,101381.44
2022-10-07T14:28:28.335Z,101377.19
2022-10-07T14:33:54.235Z,101367.16
2022-10-07T14:39:30.569Z,101354.94
2022-10-07T14:44:53.568Z,101347.94
2022-10-07T14:50:15.910Z,101336.06
2022-10-07T14:55:38.974Z,101322.06
2022-10-07T15:01:00.771Z,101316.06
2022-10-07T15:06:22.817Z,101313.13
2022-10-07T15:11:44.651Z,101304.56
2022-10-07T15:17:06.572Z,101268.53
2022-10-07T15:22:28.520Z,101292.22
2022-10-07T15:27:50.304Z,101292.97
2022-10-07T15:33:12.176Z,101294.53
2022-10-07T15:38:34.008Z,101292.94
2022-10-07T15:43:57.969Z,101275.56
2022-10-07T15:49:20.609Z,101278.16
2022-10-07T15:54:42.398Z,101272.44
2022-10-07T16:00:04.822Z,101264.88
2022-10-07T16:05:26.636Z,101267.31
2022-10-07T16:10:48.468Z,101264.28
2022-10-07T16:16:13.530Z,101270.94
2022-10-07T16:21:38.448Z,101271.53
2022-10-07T16:27:00.317Z,101268.75
2022-10-07T16:32:22.146Z,101259.97
2022-10-07T16:37:46.787Z,101264.56
2022-10-07T16:43:11.018Z,101267.28
2022-10-07T16:48:38.526Z,101262.81
2022-10-07T16:54:00.392Z,101263.06
2022-10-07T16:59:24.332Z,101258.78
2022-10-07T17:04:46.395Z,101245.50
2022-10-07T17:10:08.730Z,101236.72
2022-10-07T17:15:30.549Z,101240.44
2022-10-07T17:20:53.627Z,101241.44
2022-10-07T17:26:16.589Z,101233.06
2022-10-07T17:31:40.703Z,101224.75
2022-10-07T17:37:02.678Z,101227.78
2022-10-07T17:42:24.556Z,101221.94
2022-10-07T17:47:46.603Z,101216.69
2022-10-07T17:53:08.589Z,101215.34
2022-10-07T17:58:33.419Z,101209.44
2022-10-07T18:04:00.174Z,101209.38
2022-10-07T18:09:21.876Z,101204.00
2022-10-07T18:14:43.874Z,101200.69
2022-10-07T18:20:06.307Z,101192.00
2022-10-07T18:25:28.144Z,101186.97
2022-10-07T18:30:50.500Z,101185.31
2022-10-07T18:36:17.703Z,101190.69
2022-10-07T18:41:40.347Z,101183.81
2022-10-07T18:47:02.177Z,101179.50
2022-10-07T18:52:24.020Z,101179.66
2022-10-07T18:57:45.987Z,101186.72
2022-10-07T19:03:08.913Z,101178.13
2022-10-07T19:08:30.836Z,101174.88
2022-10-07T19:13:54.777Z,101176.88
2022-10-07T19:19:19.288Z,101178.56
2022-10-07T19:24:41.310Z,101171.81
2022-10-07T19:30:03.418Z,101177.19
2022-10-07T19:35:25.238Z,101167.16
2022-10-07T19:40:47.066Z,101157.81
2022-10-07T19:46:10.373Z,101153.69
2022-10-07T19:51:33.431Z,101154.66
2022-10-07T19:56:55.238Z,101140.34
2022-10-07T20:02:17.129Z,101148.97
2022-10-07T20:07:38.997Z,101143.13
2022-10-07T20:13:00.832Z,101133.94
2022-10-07T20:18:22.662Z,101137.22
2022-10-07T20:23:46.935Z,101141.59
2022-10-07T20:29:08.889Z,101127.19
2022-10-07T20:34:30.719Z,101124.63
2022-10-07T20:39:52.512Z,101121.44
2022-10-07T20:45:14.484Z,101124.13
2022-10-07T20:50:36.323Z,101113.13
2022-10-07T20:56:02.937Z,101103.00
2022-10-07T21:01:25.772Z,101103.25
2022-10-07T21:06:48.305Z,101099.94
2022-10-07T21:12:12.917Z,101088.81
2022-10-07T21:17:35.008Z,101096.75
2022-10-07T21:22:56.819Z,101088.09
2022-10-07T21:28:19.101Z,101072.09
2022-10-07T21:33:40.949Z,101075.59
2022-10-07T21:39:03.239Z,101067.69
2022-10-07T21:44:25.291Z,101052.31
2022-10-07T21:49:47.129Z,101050.91
2022-10-07T21:55:09.230Z,101047.44
2022-10-07T22:00:31.050Z,101041.44
2022-10-07T22:05:52.872Z,101035.59
2022-10-07T22:11:18.919Z,101033.88
2022-10-07T22:16:41.191Z,101019.25
2022-10-07T22:22:03.001Z,101020.88
2022-10-07T22:27:24.830Z,101008.97
2022-10-07T22:32:46.869Z,100995.25
2022-10-07T22:38:08.816Z,100992.06
2022-10-07T22:43:30.818Z,100986.03
2022-10-07T22:48:57.001Z,100970.56
2022-10-07T22:54:18.814Z,100969.06
2022-10-07T22:59:40.610Z,100976.00
2022-10-07T23:05:02.435Z,100964.06
2022-10-07T23:10:24.321Z,100966.78
2022-10-07T23:15:54.940Z,100958.31
2022-10-07T23:21:19.825Z,100936.97
2022-10-07T23:26:41.993Z,100947.13
2022-10-07T23:32:03.833Z,100943.09
2022-10-07T23:37:25.709Z,100926.84
2022-10-07T23:42:47.880Z,100929.59
2022-10-07T23:48:09.998Z,100917.41
2022-10-07T23:53:33.191Z,100923.56
2022-10-07T23:58:55.030Z,100914.03
